Time;durP1;ratioP1;P1;durP2;ratioP2;P2;SDS_P1;SDS_P2;PMS_P1;PMS_P2;Temp;Humidity;BMP_temperature;BMP_pressure;BME280_temperature;BME280_humidity;BME280_pressure;Samples;Min_cycle;Max_cycle;Signal;HPM_P1;HPM_P2
2022/05/22 00:00:34;;;;;;;5.07;2.13;;;13.00;99.90;;;;;;5091660;28;20165;-82
2022/05/22 00:02:59;;;;;;;3.45;2.17;;;13.00;99.90;;;;;;5092001;28;20461;-82
2022/05/22 00:05:26;;;;;;;6.97;2.33;;;12.90;99.90;;;;;;5091594;28;20024;-83
2022/05/22 00:07:52;;;;;;;6.25;2.00;;;12.90;99.90;;;;;;5092876;28;20477;-83
2022/05/22 00:10:18;;;;;;;5.93;2.05;;;12.90;99.90;;;;;;5092338;28;20442;-83
2022/05/22 00:12:44;;;;;;;7.72;2.72;;;12.90;99.90;;;;;;5091878;28;20143;-82
2022/05/22 00:15:11;;;;;;;4.47;2.33;;;12.90;99.90;;;;;;5093171;28;20083;-82
2022/05/22 00:17:37;;;;;;;7.68;2.55;;;12.90;99.90;;;;;;5091846;28;20236;-82
2022/05/22 00:20:04;;;;;;;10.80;2.58;;;12.90;99.90;;;;;;5092403;28;20034;-83
2022/05/22 00:22:33;;;;;;;6.53;2.03;;;12.90;99.90;;;;;;5091907;28;20028;-82
2022/05/22 00:24:58;;;;;;;8.75;2.50;;;12.80;99.90;;;;;;5091777;28;20060;-82
2022/05/22 00:27:25;;;;;;;7.72;2.40;;;12.80;99.90;;;;;;5091331;28;20450;-83
2022/05/22 00:29:50;;;;;;;5.80;2.40;;;12.80;99.90;;;;;;5091140;28;20063;-82
2022/05/22 00:32:16;;;;;;;6.97;2.30;;;12.80;99.90;;;;;;5091679;28;20479;-82
2022/05/22 00:34:41;;;;;;;5.72;2.20;;;12.70;99.90;;;;;;5092103;28;20016;-82
2022/05/22 00:37:08;;;;;;;7.10;2.17;;;12.70;99.90;;;;;;5093051;28;20028;-82
2022/05/22 00:39:34;;;;;;;4.68;1.67;;;12.70;99.90;;;;;;5090980;28;20393;-82
2022/05/22 00:42:01;;;;;;;8.68;2.30;;;12.60;99.90;;;;;;5091303;28;20032;-82
2022/05/22 00:44:27;;;;;;;4.93;2.00;;;12.50;99.90;;;;;;5092672;28;20024;-82
2022/05/22 00:46:53;;;;;;;4.13;1.83;;;12.50;99.90;;;;;;5091174;28;20024;-83
2022/05/22 00:49:33;;;;;;;5.90;1.75;;;12.40;99.90;;;;;;5091150;28;20028;-82
2022/05/22 00:52:10;;;;;;;8.02;2.58;;;12.30;99.90;;;;;;5091674;28;20161;-83
2022/05/22 00:54:56;;;;;;;7.82;2.45;;;12.30;99.90;;;;;;5093276;28;20496;-82
2022/05/22 00:57:34;;;;;;;9.32;2.55;;;12.20;99.90;;;;;;5092513;28;20024;-82
2022/05/22 01:00:07;;;;;;;6.10;2.13;;;12.20;99.90;;;;;;5092183;28;20024;-82
2022/05/22 01:03:26;;;;;;;5.65;2.15;;;12.10;99.90;;;;;;5093600;28;20132;-82
2022/05/22 01:05:18;;;;;;;4.28;1.90;;;12.10;99.90;;;;;;5093523;28;20035;-82
2022/05/22 01:07:46;;;;;;;5.85;2.00;;;12.00;99.90;;;;;;5093027;28;20028;-82
2022/05/22 01:10:16;;;;;;;4.65;2.13;;;12.00;99.90;;;;;;5091612;28;20035;-83
2022/05/22 01:12:43;;;;;;;8.48;2.75;;;11.90;99.90;;;;;;5091870;28;20043;-82
2022/05/22 01:15:14;;;;;;;6.35;2.08;;;11.90;99.90;;;;;;5092231;28;20047;-82
2022/05/22 01:17:42;;;;;;;3.33;2.10;;;11.90;99.90;;;;;;5096099;28;20020;-83
2022/05/22 01:20:09;;;;;;;6.80;2.10;;;11.80;99.90;;;;;;5096952;28;20493;-83
2022/05/22 01:22:35;;;;;;;3.67;1.70;;;11.80;99.90;;;;;;5096216;28;20123;-83
2022/05/22 01:25:01;;;;;;;6.60;2.53;;;11.80;99.90;;;;;;5096166;28;20070;-83
2022/05/22 01:27:27;;;;;;;4.55;2.22;;;11.70;99.90;;;;;;5095563;28;20070;-82
2022/05/22 01:30:13;;;;;;;5.43;2.47;;;11.70;99.90;;;;;;5096086;28;20112;-83
2022/05/22 01:32:42;;;;;;;7.63;2.45;;;11.70;99.90;;;;;;5097452;28;20481;-83
2022/05/22 01:35:10;;;;;;;5.47;1.98;;;11.70;99.90;;;;;;5096162;28;20118;-83
2022/05/22 01:37:36;;;;;;;8.00;2.78;;;11.70;99.90;;;;;;5096905;28;20040;-83
2022/05/22 01:40:03;;;;;;;4.05;2.05;;;11.60;99.90;;;;;;5095082;28;20473;-83
2022/05/22 01:42:29;;;;;;;8.50;2.40;;;11.60;99.90;;;;;;5096693;28;20025;-82
2022/05/22 01:44:55;;;;;;;16.80;2.83;;;11.60;99.90;;;;;;5096783;28;20511;-82
2022/05/22 01:47:21;;;;;;;10.52;2.95;;;11.60;99.90;;;;;;5097431;28;20081;-83
2022/05/22 01:49:47;;;;;;;8.60;2.40;;;11.50;99.90;;;;;;5095446;28;20035;-83
2022/05/22 01:52:13;;;;;;;5.18;2.35;;;11.50;99.90;;;;;;5096428;28;20016;-83
2022/05/22 01:54:38;;;;;;;6.03;2.40;;;11.40;99.90;;;;;;5095176;28;20619;-83
2022/05/22 01:57:04;;;;;;;4.75;2.28;;;11.40;99.90;;;;;;5095527;28;20130;-83
2022/05/22 01:59:29;;;;;;;5.93;2.20;;;11.40;99.90;;;;;;5101077;28;20018;-83
2022/05/22 02:01:55;;;;;;;8.88;2.35;;;11.40;99.90;;;;;;5105625;28;20024;-83
2022/05/22 02:04:21;;;;;;;4.97;2.08;;;11.30;99.90;;;;;;5105282;28;20027;-82
2022/05/22 02:09:34;;;;;;;4.15;2.33;;;11.30;99.90;;;;;;5106138;28;20039;-83
2022/05/22 02:12:00;;;;;;;4.15;2.00;;;11.20;99.90;;;;;;5106550;28;20075;-82
2022/05/22 02:14:26;;;;;;;4.25;2.38;;;11.20;99.90;;;;;;5104823;28;20012;-83
2022/05/22 02:16:52;;;;;;;4.45;2.40;;;11.20;99.90;;;;;;5104643;28;20034;-82
2022/05/22 02:19:18;;;;;;;5.30;2.13;;;11.20;99.90;;;;;;5104590;28;20028;-83
2022/05/22 02:21:45;;;;;;;6.38;2.30;;;11.10;99.90;;;;;;5105347;28;20451;-82
2022/05/22 02:24:17;;;;;;;6.63;2.20;;;11.10;99.90;;;;;;5105307;28;20020;-82
2022/05/22 02:26:45;;;;;;;7.07;2.60;;;11.10;99.90;;;;;;5105091;28;20024;-83
2022/05/22 02:29:11;;;;;;;4.33;2.17;;;11.10;99.90;;;;;;5106483;28;20004;-83
2022/05/22 02:31:37;;;;;;;9.02;2.67;;;11.00;99.90;;;;;;5105041;28;20020;-82
2022/05/22 02:34:03;;;;;;;8.27;2.88;;;11.00;99.90;;;;;;5104548;28;20020;-82
2022/05/22 02:36:31;;;;;;;7.88;2.40;;;10.90;99.90;;;;;;5107284;28;20027;-83
2022/05/22 02:38:57;;;;;;;6.18;2.72;;;10.90;99.90;;;;;;5106115;28;20027;-83
2022/05/22 02:41:25;;;;;;;5.13;2.40;;;10.80;99.90;;;;;;5106665;28;20032;-83
2022/05/22 02:43:52;;;;;;;5.95;2.35;;;10.80;99.90;;;;;;5106213;28;20043;-83
2022/05/22 02:46:19;;;;;;;5.05;2.20;;;10.80;99.90;;;;;;5107279;28;20028;-83
2022/05/22 02:48:46;;;;;;;6.07;2.38;;;10.80;99.90;;;;;;5107157;28;20024;-83
2022/05/22 02:51:20;;;;;;;6.50;2.50;;;10.70;99.90;;;;;;5105465;28;20020;-83
2022/05/22 02:53:49;;;;;;;6.43;2.20;;;10.70;99.90;;;;;;5107928;28;20012;-83
2022/05/22 02:56:19;;;;;;;5.85;2.20;;;10.60;99.90;;;;;;5107688;28;20007;-83
2022/05/22 02:58:45;;;;;;;4.43;2.20;;;10.60;99.90;;;;;;5107231;28;20488;-82
2022/05/22 03:01:10;;;;;;;5.57;2.63;;;10.60;99.90;;;;;;5106799;28;20012;-82
2022/05/22 03:03:36;;;;;;;5.85;2.50;;;10.50;99.90;;;;;;5108657;28;20020;-82
2022/05/22 03:08:49;;;;;;;10.65;2.20;;;10.50;99.90;;;;;;5109284;28;20063;-82
2022/05/22 03:11:15;;;;;;;3.88;1.92;;;10.50;99.90;;;;;;5110169;28;20054;-82
2022/05/22 03:13:41;;;;;;;7.82;2.50;;;10.50;99.90;;;;;;5108918;28;20004;-83
2022/05/22 03:16:07;;;;;;;9.15;2.70;;;10.50;99.90;;;;;;5109259;28;20020;-82
2022/05/22 03:18:33;;;;;;;5.25;2.28;;;10.40;99.90;;;;;;5109793;28;20055;-83
2022/05/22 03:20:59;;;;;;;4.25;2.28;;;10.40;99.90;;;;;;5109365;28;20031;-83
2022/05/22 03:23:25;;;;;;;6.45;2.90;;;10.40;99.90;;;;;;5109576;28;20024;-82
2022/05/22 03:25:50;;;;;;;7.32;2.38;;;10.40;99.90;;;;;;5110621;28;20100;-82
2022/05/22 03:28:17;;;;;;;6.22;2.55;;;10.30;99.90;;;;;;5110406;28;20042;-82
2022/05/22 03:30:43;;;;;;;4.88;2.38;;;10.30;99.90;;;;;;5109794;28;20089;-83
2022/05/22 03:33:12;;;;;;;7.85;2.47;;;10.40;99.90;;;;;;5110180;28;20024;-83
2022/05/22 03:35:37;;;;;;;7.20;2.35;;;10.30;99.90;;;;;;5103869;28;20032;-82
2022/05/22 03:38:04;;;;;;;4.43;2.17;;;10.30;99.90;;;;;;5103469;28;20017;-83
2022/05/22 03:40:30;;;;;;;7.03;2.25;;;10.30;99.90;;;;;;5102366;28;20051;-82
2022/05/22 03:42:57;;;;;;;8.75;2.67;;;10.30;99.90;;;;;;5102705;28;20028;-83
2022/05/22 03:45:23;;;;;;;6.10;2.53;;;10.30;99.90;;;;;;5103516;28;20577;-82
2022/05/22 03:47:48;;;;;;;11.75;3.38;;;10.30;99.90;;;;;;5102274;28;20028;-83
2022/05/22 03:50:14;;;;;;;7.70;2.95;;;10.30;99.90;;;;;;5104270;28;20111;-82
2022/05/22 03:52:43;;;;;;;5.25;2.88;;;10.30;99.90;;;;;;5106402;28;20024;-83
2022/05/22 03:55:12;;;;;;;9.18;2.95;;;10.30;99.90;;;;;;5109190;28;20027;-83
2022/05/22 03:57:38;;;;;;;4.50;2.70;;;10.30;99.90;;;;;;5108363;28;20056;-83
2022/05/22 04:00:09;;;;;;;13.27;2.92;;;10.30;99.90;;;;;;5108697;28;20024;-83
2022/05/22 04:02:35;;;;;;;5.43;2.58;;;10.30;99.90;;;;;;5109523;28;20039;-82
2022/05/22 04:05:01;;;;;;;7.35;2.88;;;10.40;99.90;;;;;;5114727;28;20076;-83
2022/05/22 04:07:27;;;;;;;7.85;2.65;;;10.50;99.90;;;;;;5113419;28;20051;-82
2022/05/22 04:09:53;;;;;;;7.55;3.13;;;10.50;99.90;;;;;;5110895;28;20028;-82
2022/05/22 04:12:18;;;;;;;9.60;3.47;;;10.50;99.90;;;;;;5108194;28;20056;-83
2022/05/22 04:14:44;;;;;;;11.02;3.38;;;10.50;99.90;;;;;;5108212;28;20085;-82
2022/05/22 04:17:10;;;;;;;11.43;3.47;;;10.50;99.90;;;;;;5106302;28;20020;-83
2022/05/22 04:19:37;;;;;;;11.38;3.00;;;10.50;99.90;;;;;;5102837;28;20064;-83
2022/05/22 04:22:04;;;;;;;7.22;3.00;;;10.40;99.90;;;;;;5105548;28;20072;-83
2022/05/22 04:27:17;;;;;;;8.57;3.17;;;10.40;99.90;;;;;;5109193;28;20054;-83
2022/05/22 04:29:45;;;;;;;11.02;2.95;;;10.50;99.90;;;;;;5104159;28;20024;-82
2022/05/22 04:32:11;;;;;;;12.90;3.63;;;10.50;99.90;;;;;;5103534;28;20020;-83
2022/05/22 04:34:37;;;;;;;9.50;3.13;;;10.50;99.90;;;;;;5105284;28;20051;-83
2022/05/22 04:37:03;;;;;;;9.40;3.22;;;10.60;99.90;;;;;;5104630;28;20055;-83
2022/05/22 04:39:29;;;;;;;12.23;2.75;;;10.60;99.90;;;;;;5104506;28;20016;-83
2022/05/22 04:41:54;;;;;;;7.80;2.83;;;10.60;99.90;;;;;;5106214;28;20016;-83
2022/05/22 04:44:20;;;;;;;8.77;3.00;;;10.60;99.90;;;;;;5108201;28;20008;-83
2022/05/22 04:46:49;;;;;;;12.00;3.60;;;10.70;99.90;;;;;;5108488;28;20016;-83
2022/05/22 04:49:14;;;;;;;9.10;3.20;;;10.70;99.90;;;;;;5107672;28;20028;-84
2022/05/22 04:51:40;;;;;;;13.55;3.92;;;10.70;99.90;;;;;;5108139;28;20024;-83
2022/05/22 04:54:06;;;;;;;12.13;4.03;;;10.80;99.90;;;;;;5111640;28;20084;-83
2022/05/22 04:56:31;;;;;;;13.60;3.53;;;10.80;99.90;;;;;;5111775;28;20044;-83
2022/05/22 04:58:57;;;;;;;16.52;3.92;;;10.80;99.90;;;;;;5108680;28;20020;-82
2022/05/22 05:01:23;;;;;;;12.48;3.80;;;10.90;99.90;;;;;;5108652;28;20048;-82
2022/05/22 05:03:49;;;;;;;10.75;3.50;;;10.90;99.90;;;;;;5104318;28;20024;-83
2022/05/22 05:06:14;;;;;;;15.65;3.80;;;10.90;99.90;;;;;;5104160;28;20020;-81
2022/05/22 05:08:40;;;;;;;14.30;4.28;;;11.00;99.90;;;;;;5104921;28;20084;-82
2022/05/22 05:11:10;;;;;;;11.00;3.75;;;11.00;99.90;;;;;;5101345;28;20024;-82
2022/05/22 05:13:37;;;;;;;6.47;2.83;;;11.10;99.90;;;;;;5102323;28;20051;-82
2022/05/22 05:16:04;;;;;;;15.38;4.78;;;11.10;99.90;;;;;;5103000;28;20763;-82
2022/05/22 05:18:43;;;;;;;20.00;6.32;;;11.10;99.90;;;;;;5102118;28;20016;-82
2022/05/22 05:21:12;;;;;;;14.30;6.35;;;11.20;99.90;;;;;;5103547;28;20028;-82
2022/05/22 05:23:39;;;;;;;15.82;6.47;;;11.10;99.90;;;;;;5102140;28;20034;-82
2022/05/22 05:26:08;;;;;;;14.10;4.53;;;11.20;99.90;;;;;;5102561;28;20054;-82
2022/05/22 05:28:34;;;;;;;15.82;4.32;;;11.20;99.90;;;;;;5101506;28;20024;-82
2022/05/22 05:31:03;;;;;;;13.65;4.15;;;11.30;99.90;;;;;;5101527;28;20028;-82
2022/05/22 05:33:32;;;;;;;11.30;4.10;;;11.30;99.90;;;;;;5101158;28;20024;-82
2022/05/22 05:35:57;;;;;;;10.63;3.70;;;11.30;99.90;;;;;;5100661;28;20103;-82
2022/05/22 05:38:23;;;;;;;8.20;3.28;;;11.40;99.90;;;;;;5100813;28;20242;-83
2022/05/22 05:40:49;;;;;;;15.52;4.47;;;11.40;99.90;;;;;;5101836;28;20070;-82
2022/05/22 05:43:16;;;;;;;15.90;4.18;;;11.50;99.90;;;;;;5103281;28;20119;-83
2022/05/22 05:45:43;;;;;;;12.15;3.88;;;11.50;99.90;;;;;;5101745;28;20020;-82
2022/05/22 05:48:09;;;;;;;9.98;4.25;;;11.60;99.90;;;;;;5102035;28;20028;-82
2022/05/22 05:50:35;;;;;;;7.78;3.67;;;11.60;99.90;;;;;;5101614;28;20054;-82
2022/05/22 05:53:01;;;;;;;10.90;3.55;;;11.70;99.90;;;;;;5102286;28;20020;-83
2022/05/22 05:55:27;;;;;;;9.68;3.08;;;11.80;99.90;;;;;;5102325;28;20038;-82
2022/05/22 05:57:53;;;;;;;9.40;3.30;;;11.80;99.90;;;;;;5103266;28;20024;-82
2022/05/22 06:00:22;;;;;;;9.77;3.25;;;11.90;99.90;;;;;;5101740;28;20104;-81
2022/05/22 06:02:48;;;;;;;10.35;3.35;;;12.00;99.90;;;;;;5101627;28;20028;-83
2022/05/22 06:05:17;;;;;;;7.50;2.88;;;12.00;99.90;;;;;;5102833;28;20024;-82
2022/05/22 06:07:48;;;;;;;9.20;2.88;;;12.10;99.90;;;;;;5102768;28;20029;-82
2022/05/22 06:10:13;;;;;;;10.30;3.00;;;12.10;99.90;;;;;;5101424;28;20572;-83
2022/05/22 06:12:39;;;;;;;11.25;2.80;;;12.10;99.90;;;;;;5103581;28;20052;-82
2022/05/22 06:15:08;;;;;;;15.63;3.50;;;12.20;99.90;;;;;;5102430;28;20020;-83
2022/05/22 06:17:43;;;;;;;11.52;2.90;;;12.30;99.90;;;;;;5102556;28;20027;-82
2022/05/22 06:20:13;;;;;;;14.95;3.60;;;12.40;99.90;;;;;;5100375;28;20442;-82
2022/05/22 06:22:42;;;;;;;10.27;2.83;;;12.40;99.90;;;;;;5102038;28;20025;-83
2022/05/22 06:25:09;;;;;;;8.57;3.60;;;12.60;99.90;;;;;;5102415;28;20069;-83
2022/05/22 06:27:38;;;;;;;8.63;2.83;;;12.70;99.90;;;;;;5103777;28;20554;-83
2022/05/22 06:30:05;;;;;;;14.52;3.25;;;12.80;99.90;;;;;;5102825;28;20020;-81
2022/05/22 06:32:33;;;;;;;7.72;2.70;;;12.90;99.90;;;;;;5101363;28;20016;-82
2022/05/22 06:35:01;;;;;;;15.52;3.90;;;13.00;99.90;;;;;;5097583;28;20023;-83
2022/05/22 06:37:27;;;;;;;15.70;3.83;;;13.00;99.90;;;;;;5098848;28;20133;-82
2022/05/22 06:39:55;;;;;;;14.88;4.25;;;13.10;99.90;;;;;;5096714;28;20480;-82
2022/05/22 06:42:26;;;;;;;15.45;3.75;;;13.00;99.90;;;;;;5098311;28;20094;-82
2022/05/22 06:45:01;;;;;;;8.80;3.33;;;13.00;99.90;;;;;;5097649;28;20515;-83
2022/05/22 06:47:31;;;;;;;15.13;3.67;;;13.10;99.90;;;;;;5097205;28;20067;-83
2022/05/22 06:49:58;;;;;;;9.98;3.35;;;13.20;99.90;;;;;;5097703;28;20024;-82
2022/05/22 06:52:25;;;;;;;12.30;3.15;;;13.30;99.90;;;;;;5096494;28;20040;-82
2022/05/22 06:54:51;;;;;;;11.27;3.42;;;13.40;99.90;;;;;;5096938;28;20384;-82
2022/05/22 06:57:20;;;;;;;14.38;3.58;;;13.50;99.90;;;;;;5095377;28;20473;-83
2022/05/22 06:59:47;;;;;;;12.10;3.50;;;13.70;99.90;;;;;;5097062;28;20024;-83
2022/05/22 07:02:14;;;;;;;11.23;3.17;;;13.80;99.90;;;;;;5097662;28;20031;-83
2022/05/22 07:04:41;;;;;;;14.70;3.72;;;13.80;99.90;;;;;;5100502;28;20058;-82
2022/05/22 07:07:08;;;;;;;9.32;2.65;;;13.70;99.90;;;;;;5100083;28;20024;-83
2022/05/22 07:09:34;;;;;;;6.35;3.00;;;13.80;99.90;;;;;;5098211;28;20032;-83
2022/05/22 07:12:15;;;;;;;10.68;2.60;;;14.00;99.90;;;;;;5098833;28;20385;-83
2022/05/22 07:14:44;;;;;;;9.38;2.35;;;14.10;99.90;;;;;;5097758;28;20055;-83
2022/05/22 07:17:14;;;;;;;7.68;2.30;;;14.10;99.90;;;;;;5099535;28;20028;-83
2022/05/22 07:19:42;;;;;;;9.85;3.40;;;14.10;99.90;;;;;;5099632;28;20107;-81
2022/05/22 07:22:08;;;;;;;10.38;2.90;;;14.30;99.90;;;;;;5098903;28;20028;-82
2022/05/22 07:24:36;;;;;;;8.27;2.80;;;14.40;99.90;;;;;;5098265;28;20034;-83
2022/05/22 07:27:03;;;;;;;10.02;2.58;;;14.50;99.90;;;;;;5098880;28;20028;-84
2022/05/22 07:29:32;;;;;;;11.05;2.53;;;14.60;99.90;;;;;;5098328;28;20028;-82
2022/05/22 07:31:58;;;;;;;8.30;2.72;;;14.70;99.90;;;;;;5097862;28;20237;-83
2022/05/22 07:34:27;;;;;;;6.13;2.03;;;14.70;99.90;;;;;;5096109;28;20115;-83
2022/05/22 07:37:01;;;;;;;7.18;2.55;;;14.90;99.90;;;;;;5094354;28;20424;-83
2022/05/22 07:39:27;;;;;;;9.55;2.88;;;15.20;99.90;;;;;;5095869;28;20012;-83
2022/05/22 07:41:53;;;;;;;8.13;3.03;;;15.60;99.90;;;;;;5094782;28;20568;-82
2022/05/22 07:44:19;;;;;;;6.18;2.10;;;15.60;99.90;;;;;;5095383;28;20024;-83
2022/05/22 07:46:45;;;;;;;7.60;1.90;;;15.50;99.90;;;;;;5094688;28;20471;-83
2022/05/22 07:50:16;;;;;;;6.38;2.05;;;15.50;99.90;;;;;;5094485;28;20025;-83
2022/05/22 07:52:05;;;;;;;6.28;2.25;;;15.60;99.90;;;;;;5097098;28;20058;-83
2022/05/22 07:54:35;;;;;;;5.78;1.80;;;15.90;99.90;;;;;;5095319;28;20028;-83
2022/05/22 07:57:00;;;;;;;5.63;2.08;;;16.00;99.90;;;;;;5096098;28;20102;-83
2022/05/22 07:59:26;;;;;;;7.50;2.35;;;16.10;99.90;;;;;;5094523;28;20111;-82
2022/05/22 08:01:55;;;;;;;6.85;2.50;;;16.40;99.90;;;;;;5094028;28;20118;-83
2022/05/22 08:04:23;;;;;;;8.68;2.35;;;16.60;99.90;;;;;;5093363;28;20032;-83
2022/05/22 08:06:49;;;;;;;6.25;2.08;;;17.00;99.90;;;;;;5092905;28;20024;-83
2022/05/22 08:09:17;;;;;;;6.85;2.47;;;17.30;99.50;;;;;;5093285;28;20113;-83
2022/05/22 08:11:43;;;;;;;12.48;2.53;;;17.30;99.00;;;;;;5093625;28;20141;-83
2022/05/22 08:14:11;;;;;;;5.63;1.80;;;17.40;98.70;;;;;;5093382;28;20028;-83
2022/05/22 08:16:40;;;;;;;6.47;1.95;;;17.40;97.10;;;;;;5093224;28;20045;-83
2022/05/22 08:19:09;;;;;;;4.47;1.73;;;17.60;96.50;;;;;;5092297;28;20012;-82
2022/05/22 08:21:35;;;;;;;4.72;1.52;;;18.40;95.70;;;;;;5091088;28;20028;-83
2022/05/22 08:24:04;;;;;;;4.68;1.63;;;19.50;94.20;;;;;;5094457;28;20102;-83
2022/05/22 08:26:29;;;;;;;5.97;1.73;;;20.50;91.40;;;;;;5096835;28;20024;-82
2022/05/22 08:28:55;;;;;;;7.22;1.63;;;21.40;87.30;;;;;;5098149;28;20042;-83
2022/05/22 08:31:21;;;;;;;5.28;1.63;;;22.30;85.60;;;;;;5100430;28;20370;-84
2022/05/22 08:33:50;;;;;;;8.10;1.77;;;22.20;84.50;;;;;;5100655;28;20032;-83
2022/05/22 08:36:18;;;;;;;7.15;2.33;;;22.20;80.50;;;;;;5101561;28;20036;-83
2022/05/22 08:38:44;;;;;;;4.25;1.50;;;22.70;80.00;;;;;;5100619;28;20435;-83
2022/05/22 08:41:43;;;;;;;4.03;1.75;;;22.80;75.20;;;;;;5098013;28;20032;-83
2022/05/22 08:44:10;;;;;;;6.03;1.80;;;22.30;75.60;;;;;;5074622;28;20044;-84
2022/05/22 08:46:54;;;;;;;4.40;1.73;;;23.00;71.60;;;;;;5097805;28;20036;-83
2022/05/22 08:49:41;;;;;;;3.72;1.20;;;23.90;72.50;;;;;;5096089;28;20024;-83
2022/05/22 08:52:39;;;;;;;4.10;1.30;;;25.30;67.00;;;;;;5097034;28;20472;-83
2022/05/22 08:55:13;;;;;;;5.53;1.60;;;25.20;63.60;;;;;;5095445;28;20032;-83
2022/05/22 09:01:08;;;;;;;7.00;1.70;;;24.10;64.70;;;;;;5097400;28;20109;-83
2022/05/22 09:03:52;;;;;;;4.90;1.70;;;24.50;63.20;;;;;;5097228;28;20116;-83
2022/05/22 09:06:40;;;;;;;4.30;1.85;;;26.20;61.00;;;;;;5099079;28;20092;-83
2022/05/22 09:09:06;;;;;;;5.18;1.80;;;26.00;60.90;;;;;;5097148;28;20112;-84
2022/05/22 09:12:28;;;;;;;4.28;1.60;;;24.50;63.20;;;;;;5095260;28;20020;-83
2022/05/22 09:15:45;;;;;;;2.92;1.25;;;24.50;65.00;;;;;;5096665;28;20031;-84
2022/05/22 09:18:36;;;;;;;4.07;1.52;;;23.70;64.00;;;;;;5053428;28;20025;-83
2022/05/22 09:21:12;;;;;;;2.75;1.30;;;23.20;64.20;;;;;;5095765;28;20020;-83
2022/05/22 09:24:01;;;;;;;5.07;3.50;;;23.30;66.00;;;;;;5094812;28;20039;-84
2022/05/22 09:26:55;;;;;;;5.25;2.63;;;25.00;59.80;;;;;;5094743;28;20144;-80
2022/05/22 09:29:47;;;;;;;4.13;1.90;;;24.70;61.40;;;;;;5093915;28;20028;-80
2022/05/22 09:32:36;;;;;;;3.42;1.60;;;23.70;61.30;;;;;;5095453;28;20032;-79
2022/05/22 09:35:36;;;;;;;4.55;1.75;;;22.20;66.20;;;;;;5095418;28;20103;-79
2022/05/22 09:38:30;;;;;;;12.07;2.28;;;21.50;67.70;;;;;;5093513;28;20020;-80
2022/05/22 09:41:07;;;;;;;4.80;1.95;;;20.80;71.90;;;;;;5094755;28;20030;-79
2022/05/22 09:44:10;;;;;;;5.25;1.45;;;20.00;71.10;;;;;;5093931;28;20480;-80
2022/05/22 09:47:23;;;;;;;3.03;1.50;;;20.80;73.30;;;;;;5094003;28;20066;-80
2022/05/22 09:50:15;;;;;;;2.60;1.20;;;22.00;69.00;;;;;;5092876;28;20028;-80
2022/05/22 09:53:05;;;;;;;4.75;1.60;;;22.20;66.40;;;;;;5093610;28;20028;-80
2022/05/22 09:55:58;;;;;;;4.18;1.45;;;22.00;65.80;;;;;;5093728;28;20047;-80
2022/05/22 09:59:15;;;;;;;6.35;1.95;;;21.90;67.80;;;;;;5093882;28;20120;-80
2022/05/22 10:02:05;;;;;;;4.82;1.60;;;21.20;67.90;;;;;;5093138;28;20052;-80
2022/05/22 10:05:07;;;;;;;4.47;1.83;;;21.70;70.30;;;;;;5093310;28;20039;-80
2022/05/22 10:08:10;;;;;;;5.18;1.73;;;23.70;64.90;;;;;;5094970;28;20527;-80
2022/05/22 10:11:18;;;;;;;3.63;1.27;;;26.10;59.90;;;;;;5092866;28;20092;-80
2022/05/22 10:13:58;;;;;;;4.63;1.10;;;27.20;55.00;;;;;;5093759;28;20023;-80
2022/05/22 10:17:03;;;;;;;4.45;1.30;;;27.90;52.80;;;;;;5094849;28;20016;-81
2022/05/22 10:20:07;;;;;;;3.10;1.35;;;25.90;52.40;;;;;;5093604;28;20111;-80
2022/05/22 10:23:12;;;;;;;3.85;1.55;;;26.50;54.20;;;;;;5095162;28;20073;-80
2022/05/22 10:26:19;;;;;;;3.58;1.02;;;27.90;54.80;;;;;;5094849;28;20050;-81
2022/05/22 10:29:23;;;;;;;2.72;1.20;;;29.30;53.70;;;;;;5094486;28;20025;-81
2022/05/22 10:32:02;;;;;;;2.92;1.08;;;30.00;52.50;;;;;;5092973;28;20122;-80
2022/05/22 10:34:40;;;;;;;3.45;1.15;;;28.80;49.70;;;;;;5094236;28;20032;-80
2022/05/22 10:37:55;;;;;;;3.47;1.13;;;27.10;52.30;;;;;;5093977;28;20055;-79
2022/05/22 10:40:26;;;;;;;5.38;1.40;;;25.20;55.70;;;;;;5091418;28;20028;-80
2022/05/22 10:42:56;;;;;;;2.33;1.30;;;24.70;57.30;;;;;;5095682;28;20362;-80
2022/05/22 10:45:36;;;;;;;3.15;1.23;;;24.40;56.70;;;;;;5095357;28;20031;-80
2022/05/22 10:48:19;;;;;;;;;;;24.00;56.30;;;;;;5095462;28;20408;-80
2022/05/22 10:51:03;;;;;;;4.18;1.50;;;24.20;57.00;;;;;;5093868;28;19915;-81
2022/05/22 10:53:37;;;;;;;3.28;1.30;;;24.70;54.20;;;;;;5094637;28;20028;-79
2022/05/22 10:56:23;;;;;;;2.58;1.23;;;26.40;52.50;;;;;;5095984;28;20457;-80
2022/05/22 10:59:02;;;;;;;2.65;1.30;;;27.30;52.40;;;;;;5093774;28;20026;-79
2022/05/22 11:01:34;;;;;;;6.80;1.60;;;28.30;48.80;;;;;;5093512;28;20024;-79
2022/05/22 11:04:13;;;;;;;5.00;1.35;;;28.50;48.60;;;;;;5095563;28;20477;-80
2022/05/22 11:07:00;;;;;;;2.70;1.10;;;28.10;50.10;;;;;;5093387;28;20031;-79
2022/05/22 11:09:43;;;;;;;1.55;0.98;;;27.60;51.50;;;;;;5092822;28;20028;-79
2022/05/22 11:12:18;;;;;;;2.17;0.88;;;26.50;50.70;;;;;;5094474;28;20020;-79
2022/05/22 11:14:44;;;;;;;2.03;1.10;;;25.40;52.00;;;;;;5093042;28;20020;-80
2022/05/22 11:17:23;;;;;;;2.42;1.30;;;24.80;55.30;;;;;;5094628;28;20091;-79
2022/05/22 11:19:58;;;;;;;3.65;1.13;;;25.70;53.40;;;;;;5093912;28;20437;-80
2022/05/22 11:22:58;;;;;;;4.57;1.23;;;26.90;53.90;;;;;;5093270;28;20020;-80
2022/05/22 11:26:05;;;;;;;3.45;1.08;;;27.30;52.40;;;;;;5093029;28;20161;-80
2022/05/22 11:29:11;;;;;;;2.83;1.35;;;27.50;51.50;;;;;;5093838;28;20028;-80
2022/05/22 11:31:54;;;;;;;2.58;1.10;;;29.40;50.80;;;;;;5092947;28;20453;-80
2022/05/22 11:34:33;;;;;;;2.03;0.98;;;28.10;49.80;;;;;;5096027;28;20048;-79
2022/05/22 11:37:26;;;;;;;3.75;1.13;;;27.80;49.20;;;;;;5093840;28;20431;-80
2022/05/22 11:40:09;;;;;;;2.20;1.15;;;26.50;53.20;;;;;;5093429;28;20028;-80
2022/05/22 11:42:39;;;;;;;2.65;1.20;;;25.30;54.10;;;;;;5092728;28;20357;-79
2022/05/22 11:45:11;;;;;;;;;;;25.50;55.10;;;;;;5092963;28;20035;-80
2022/05/22 11:48:07;;;;;;;3.28;1.27;;;25.90;54.10;;;;;;5094212;28;19910;-80
2022/05/22 11:50:53;;;;;;;3.60;1.35;;;26.20;51.60;;;;;;5091652;28;20106;-80
2022/05/22 11:53:30;;;;;;;4.20;1.08;;;27.50;52.50;;;;;;5093976;28;20035;-80
2022/05/22 11:56:06;;;;;;;2.05;1.10;;;28.00;49.50;;;;;;5092528;28;20392;-80
2022/05/22 11:58:34;;;;;;;2.40;1.00;;;28.20;49.90;;;;;;5092294;28;20477;-80
2022/05/22 12:01:21;;;;;;;5.05;1.15;;;27.90;48.20;;;;;;5090902;28;20032;-80
2022/05/22 12:04:14;;;;;;;3.75;1.35;;;26.90;50.40;;;;;;5092018;28;20024;-81
2022/05/22 12:06:55;;;;;;;4.55;1.23;;;26.80;53.30;;;;;;5092726;28;20077;-80
2022/05/22 12:09:34;;;;;;;3.72;1.13;;;26.70;54.40;;;;;;5092220;28;20461;-80
2022/05/22 12:12:44;;;;;;;6.43;1.20;;;26.60;52.30;;;;;;5092703;28;20048;-80
2022/05/22 12:15:51;;;;;;;4.60;1.25;;;26.10;51.60;;;;;;5093034;28;20016;-80
2022/05/22 12:18:45;;;;;;;2.83;1.10;;;26.30;54.20;;;;;;5092324;28;20047;-80
2022/05/22 12:21:46;;;;;;;2.08;1.00;;;26.20;50.60;;;;;;5091824;28;20063;-81
2022/05/22 12:24:27;;;;;;;4.82;1.10;;;25.80;55.10;;;;;;5086615;28;20032;-80
2022/05/22 12:26:53;;;;;;;2.75;1.00;;;26.00;55.30;;;;;;5092563;28;20504;-80
2022/05/22 12:29:32;;;;;;;3.70;1.15;;;25.50;52.50;;;;;;5093448;28;20036;-80
2022/05/22 12:32:06;;;;;;;1.40;1.08;;;24.70;54.00;;;;;;5093356;28;20039;-80
2022/05/22 12:34:54;;;;;;;4.65;1.52;;;23.80;51.70;;;;;;5091497;28;20043;-80
2022/05/22 12:37:37;;;;;;;4.05;1.20;;;23.20;55.40;;;;;;5092776;28;20028;-80
2022/05/22 12:40:23;;;;;;;3.92;1.00;;;23.60;55.00;;;;;;5090769;28;20028;-80
2022/05/22 12:42:52;;;;;;;4.25;1.33;;;23.90;58.10;;;;;;5091399;28;20024;-80
2022/05/22 12:45:19;;;;;;;1.70;1.00;;;24.00;55.20;;;;;;5091262;28;20079;-80
2022/05/22 12:47:47;;;;;;;3.33;1.30;;;24.20;54.90;;;;;;5091172;28;20401;-81
2022/05/22 12:50:33;;;;;;;3.25;1.10;;;24.60;55.00;;;;;;5090867;28;20513;-80
2022/05/22 12:52:59;;;;;;;2.72;1.10;;;24.70;51.50;;;;;;5091361;28;20055;-80
2022/05/22 12:55:34;;;;;;;4.18;1.27;;;25.00;52.60;;;;;;5091649;28;20043;-80
2022/05/22 12:58:02;;;;;;;2.95;1.20;;;24.80;52.10;;;;;;5093709;28;20097;-80
2022/05/22 13:00:39;;;;;;;2.53;1.10;;;24.70;51.80;;;;;;5091639;28;20035;-79
2022/05/22 13:03:23;;;;;;;2.38;1.60;;;24.60;53.00;;;;;;5093670;28;20120;-80
2022/05/22 13:06:19;;;;;;;2.20;1.10;;;24.10;55.30;;;;;;5093106;28;20024;-79
2022/05/22 13:08:57;;;;;;;2.58;1.35;;;23.30;55.70;;;;;;5091870;28;20024;-80
2022/05/22 13:11:49;;;;;;;3.25;1.10;;;22.90;58.60;;;;;;5091364;28;20074;-79
2022/05/22 13:14:26;;;;;;;4.85;1.85;;;22.70;60.60;;;;;;5077459;28;20228;-79
2022/05/22 13:16:52;;;;;;;2.65;1.20;;;22.20;58.90;;;;;;5097496;28;20138;-79
2022/05/22 13:19:24;;;;;;;4.72;1.65;;;21.90;59.20;;;;;;5097060;28;20107;-80
2022/05/22 13:21:56;;;;;;;6.03;1.55;;;21.60;58.50;;;;;;5095258;28;20073;-79
2022/05/22 13:24:25;;;;;;;4.22;1.30;;;21.70;59.80;;;;;;5097194;28;20548;-79
2022/05/22 13:27:00;;;;;;;6.07;1.65;;;22.50;60.30;;;;;;5095701;28;20028;-80
2022/05/22 13:29:48;;;;;;;3.08;1.35;;;23.20;57.90;;;;;;5095468;28;20027;-79